sensor_id;sensor_type;location;lat;lon;timestamp;temperature;humidity
451;DHT22;212;48.748;9.174;2022-09-03T00:02:26;17.50;1.00
451;DHT22;212;48.748;9.174;2022-09-03T00:04:59;17.60;1.00
451;DHT22;212;48.748;9.174;2022-09-03T00:07:33;17.60;1.00
451;DHT22;212;48.748;9.174;2022-09-03T00:10:03;17.50;1.00
451;DHT22;212;48.748;9.174;2022-09-03T00:12:36;17.60;1.00
451;DHT22;212;48.748;9.174;2022-09-03T00:15:09;17.50;1.00
451;DHT22;212;48.748;9.174;2022-09-03T00:17:39;17.60;1.00
451;DHT22;212;48.748;9.174;2022-09-03T00:20:10;17.60;1.00
451;DHT22;212;48.748;9.174;2022-09-03T00:22:41;17.60;1.00
451;DHT22;212;48.748;9.174;2022-09-03T00:25:12;17.60;1.00
451;DHT22;212;48.748;9.174;2022-09-03T00:27:42;17.60;1.00
451;DHT22;212;48.748;9.174;2022-09-03T00:30:14;17.60;1.00
451;DHT22;212;48.748;9.174;2022-09-03T00:32:43;17.60;1.00
451;DHT22;212;48.748;9.174;2022-09-03T00:35:15;17.60;1.00
451;DHT22;212;48.748;9.174;2022-09-03T00:37:42;17.60;1.00
451;DHT22;212;48.748;9.174;2022-09-03T00:40:18;17.70;1.00
451;DHT22;212;48.748;9.174;2022-09-03T00:42:51;17.70;1.00
451;DHT22;212;48.748;9.174;2022-09-03T00:45:28;17.70;1.00
451;DHT22;212;48.748;9.174;2022-09-03T00:48:05;17.70;1.00
451;DHT22;212;48.748;9.174;2022-09-03T00:50:44;17.70;1.00
451;DHT22;212;48.748;9.174;2022-09-03T00:53:25;17.60;1.00
451;DHT22;212;48.748;9.174;2022-09-03T00:55:58;17.60;1.00
451;DHT22;212;48.748;9.174;2022-09-03T00:58:42;17.60;1.00
451;DHT22;212;48.748;9.174;2022-09-03T01:01:15;17.50;1.00
451;DHT22;212;48.748;9.174;2022-09-03T01:03:53;17.50;1.00
451;DHT22;212;48.748;9.174;2022-09-03T01:06:29;17.40;1.00
451;DHT22;212;48.748;9.174;2022-09-03T01:09:11;17.40;1.00
451;DHT22;212;48.748;9.174;2022-09-03T01:11:50;17.40;1.00
451;DHT22;212;48.748;9.174;2022-09-03T01:14:30;17.40;1.00
451;DHT22;212;48.748;9.174;2022-09-03T01:17:08;17.20;1.00
451;DHT22;212;48.748;9.174;2022-09-03T01:19:57;17.20;1.00
451;DHT22;212;48.748;9.174;2022-09-03T01:22:45;17.20;1.00
451;DHT22;212;48.748;9.174;2022-09-03T01:25:24;17.20;1.00
451;DHT22;212;48.748;9.174;2022-09-03T01:28:21;17.20;1.00
451;DHT22;212;48.748;9.174;2022-09-03T01:31:04;17.20;1.00
451;DHT22;212;48.748;9.174;2022-09-03T01:33:39;17.20;1.00
451;DHT22;212;48.748;9.174;2022-09-03T01:36:11;17.30;1.00
451;DHT22;212;48.748;9.174;2022-09-03T01:38:49;17.30;1.00
451;DHT22;212;48.748;9.174;2022-09-03T01:41:24;17.10;1.00
451;DHT22;212;48.748;9.174;2022-09-03T01:44:19;17.10;1.00
451;DHT22;212;48.748;9.174;2022-09-03T01:46:58;17.20;1.00
451;DHT22;212;48.748;9.174;2022-09-03T01:49:36;17.10;1.00
451;DHT22;212;48.748;9.174;2022-09-03T01:52:11;17.10;1.00
451;DHT22;212;48.748;9.174;2022-09-03T01:54:49;17.20;1.00
451;DHT22;212;48.748;9.174;2022-09-03T01:57:32;17.10;1.00
451;DHT22;212;48.748;9.174;2022-09-03T02:00:07;17.10;1.00
451;DHT22;212;48.748;9.174;2022-09-03T02:02:35;17.10;1.00
451;DHT22;212;48.748;9.174;2022-09-03T02:05:05;17.00;1.00
451;DHT22;212;48.748;9.174;2022-09-03T02:07:35;17.00;1.00
451;DHT22;212;48.748;9.174;2022-09-03T02:10:06;17.10;1.00
451;DHT22;212;48.748;9.174;2022-09-03T02:12:35;17.00;1.00
451;DHT22;212;48.748;9.174;2022-09-03T02:15:09;16.90;1.00
451;DHT22;212;48.748;9.174;2022-09-03T02:17:37;16.90;1.00
451;DHT22;212;48.748;9.174;2022-09-03T02:20:06;16.80;1.00
451;DHT22;212;48.748;9.174;2022-09-03T02:22:36;16.80;1.00
451;DHT22;212;48.748;9.174;2022-09-03T02:25:04;16.70;1.00
451;DHT22;212;48.748;9.174;2022-09-03T02:27:31;16.70;1.00
451;DHT22;212;48.748;9.174;2022-09-03T02:29:58;16.70;1.00
451;DHT22;212;48.748;9.174;2022-09-03T02:32:26;16.70;1.00
451;DHT22;212;48.748;9.174;2022-09-03T02:34:53;16.80;1.00
451;DHT22;212;48.748;9.174;2022-09-03T02:37:20;16.80;1.00
451;DHT22;212;48.748;9.174;2022-09-03T02:39:47;16.80;1.00
451;DHT22;212;48.748;9.174;2022-09-03T02:42:16;16.70;1.00
451;DHT22;212;48.748;9.174;2022-09-03T02:44:46;16.60;1.00
451;DHT22;212;48.748;9.174;2022-09-03T02:47:13;16.60;1.00
451;DHT22;212;48.748;9.174;2022-09-03T02:49:41;16.70;1.00
451;DHT22;212;48.748;9.174;2022-09-03T02:52:09;16.70;1.00
451;DHT22;212;48.748;9.174;2022-09-03T02:54:37;16.70;1.00
451;DHT22;212;48.748;9.174;2022-09-03T02:57:05;16.60;1.00
451;DHT22;212;48.748;9.174;2022-09-03T02:59:32;16.60;1.00
451;DHT22;212;48.748;9.174;2022-09-03T03:01:59;16.60;1.00
451;DHT22;212;48.748;9.174;2022-09-03T03:04:26;16.50;1.00
451;DHT22;212;48.748;9.174;2022-09-03T03:06:54;16.40;1.00
451;DHT22;212;48.748;9.174;2022-09-03T03:09:21;16.30;1.00
451;DHT22;212;48.748;9.174;2022-09-03T03:11:47;16.40;1.00
451;DHT22;212;48.748;9.174;2022-09-03T03:14:15;16.40;1.00
451;DHT22;212;48.748;9.174;2022-09-03T03:16:41;16.40;1.00
451;DHT22;212;48.748;9.174;2022-09-03T03:19:08;16.30;1.00
451;DHT22;212;48.748;9.174;2022-09-03T03:21:35;16.20;1.00
451;DHT22;212;48.748;9.174;2022-09-03T03:24:03;16.30;1.00
451;DHT22;212;48.748;9.174;2022-09-03T03:26:30;16.20;1.00
451;DHT22;212;48.748;9.174;2022-09-03T03:28:58;16.20;1.00
451;DHT22;212;48.748;9.174;2022-09-03T03:31:25;16.20;1.00
451;DHT22;212;48.748;9.174;2022-09-03T03:33:54;16.10;1.00
451;DHT22;212;48.748;9.174;2022-09-03T03:36:22;16.10;1.00
451;DHT22;212;48.748;9.174;2022-09-03T03:38:53;16.10;1.00
451;DHT22;212;48.748;9.174;2022-09-03T03:41:23;16.00;1.00
451;DHT22;212;48.748;9.174;2022-09-03T03:43:51;16.10;1.00
451;DHT22;212;48.748;9.174;2022-09-03T03:46:19;16.10;1.00
451;DHT22;212;48.748;9.174;2022-09-03T03:48:47;16.10;1.00
451;DHT22;212;48.748;9.174;2022-09-03T03:51:14;16.00;1.00
451;DHT22;212;48.748;9.174;2022-09-03T03:53:41;16.00;1.00
451;DHT22;212;48.748;9.174;2022-09-03T03:56:11;16.00;1.00
451;DHT22;212;48.748;9.174;2022-09-03T03:58:39;16.00;1.00
451;DHT22;212;48.748;9.174;2022-09-03T04:01:09;16.00;1.00
451;DHT22;212;48.748;9.174;2022-09-03T04:03:36;16.00;1.00
451;DHT22;212;48.748;9.174;2022-09-03T04:06:04;16.00;1.00
451;DHT22;212;48.748;9.174;2022-09-03T04:08:33;16.10;1.00
451;DHT22;212;48.748;9.174;2022-09-03T04:11:02;16.00;1.00
451;DHT22;212;48.748;9.174;2022-09-03T04:13:29;16.00;1.00
451;DHT22;212;48.748;9.174;2022-09-03T04:16:01;16.00;1.00
451;DHT22;212;48.748;9.174;2022-09-03T04:18:28;16.00;1.00
451;DHT22;212;48.748;9.174;2022-09-03T04:20:59;15.90;1.00
451;DHT22;212;48.748;9.174;2022-09-03T04:23:29;15.90;1.00
451;DHT22;212;48.748;9.174;2022-09-03T04:25:56;16.00;1.00
451;DHT22;212;48.748;9.174;2022-09-03T04:28:22;15.90;1.00
451;DHT22;212;48.748;9.174;2022-09-03T04:30:49;15.90;1.00
451;DHT22;212;48.748;9.174;2022-09-03T04:33:17;15.90;1.00
451;DHT22;212;48.748;9.174;2022-09-03T04:35:44;16.00;1.00
451;DHT22;212;48.748;9.174;2022-09-03T04:38:11;16.00;1.00
451;DHT22;212;48.748;9.174;2022-09-03T04:40:38;15.90;1.00
451;DHT22;212;48.748;9.174;2022-09-03T04:43:04;15.90;1.00
451;DHT22;212;48.748;9.174;2022-09-03T04:45:31;15.90;1.00
451;DHT22;212;48.748;9.174;2022-09-03T04:47:58;15.90;1.00
451;DHT22;212;48.748;9.174;2022-09-03T04:50:28;15.90;1.00
451;DHT22;212;48.748;9.174;2022-09-03T04:52:58;15.90;1.00
451;DHT22;212;48.748;9.174;2022-09-03T04:55:25;16.00;1.00
451;DHT22;212;48.748;9.174;2022-09-03T04:57:52;16.00;1.00
451;DHT22;212;48.748;9.174;2022-09-03T05:00:19;16.00;1.00
451;DHT22;212;48.748;9.174;2022-09-03T05:02:46;15.90;1.00
451;DHT22;212;48.748;9.174;2022-09-03T05:05:14;15.90;1.00
451;DHT22;212;48.748;9.174;2022-09-03T05:07:42;15.90;1.00
451;DHT22;212;48.748;9.174;2022-09-03T05:10:10;15.90;1.00
451;DHT22;212;48.748;9.174;2022-09-03T05:12:40;16.00;1.00
451;DHT22;212;48.748;9.174;2022-09-03T05:15:07;16.00;1.00
451;DHT22;212;48.748;9.174;2022-09-03T05:17:34;16.10;1.00
451;DHT22;212;48.748;9.174;2022-09-03T05:20:03;16.10;1.00
451;DHT22;212;48.748;9.174;2022-09-03T05:22:30;16.20;1.00
451;DHT22;212;48.748;9.174;2022-09-03T05:24:58;16.30;1.00
451;DHT22;212;48.748;9.174;2022-09-03T05:27:25;16.30;1.00
451;DHT22;212;48.748;9.174;2022-09-03T05:29:51;16.20;1.00
451;DHT22;212;48.748;9.174;2022-09-03T05:32:18;16.30;1.00
451;DHT22;212;48.748;9.174;2022-09-03T05:34:45;16.40;1.00
451;DHT22;212;48.748;9.174;2022-09-03T05:37:11;16.40;1.00
451;DHT22;212;48.748;9.174;2022-09-03T05:39:38;16.50;1.00
451;DHT22;212;48.748;9.174;2022-09-03T05:42:06;16.80;1.00
451;DHT22;212;48.748;9.174;2022-09-03T05:44:33;17.00;1.00
451;DHT22;212;48.748;9.174;2022-09-03T05:47:01;17.00;1.00
451;DHT22;212;48.748;9.174;2022-09-03T05:49:28;16.90;1.00
451;DHT22;212;48.748;9.174;2022-09-03T05:51:55;17.10;1.00
451;DHT22;212;48.748;9.174;2022-09-03T05:54:22;17.10;1.00
451;DHT22;212;48.748;9.174;2022-09-03T05:56:48;17.10;1.00
451;DHT22;212;48.748;9.174;2022-09-03T05:59:16;17.10;1.00
451;DHT22;212;48.748;9.174;2022-09-03T06:01:44;17.30;1.00
451;DHT22;212;48.748;9.174;2022-09-03T06:04:13;17.30;1.00
451;DHT22;212;48.748;9.174;2022-09-03T06:06:41;17.20;1.00
451;DHT22;212;48.748;9.174;2022-09-03T06:09:09;17.10;1.00
451;DHT22;212;48.748;9.174;2022-09-03T06:11:38;17.00;1.00
451;DHT22;212;48.748;9.174;2022-09-03T06:14:07;17.10;1.00
451;DHT22;212;48.748;9.174;2022-09-03T06:16:37;17.00;1.00
451;DHT22;212;48.748;9.174;2022-09-03T06:19:04;17.00;1.00
451;DHT22;212;48.748;9.174;2022-09-03T06:21:35;17.10;1.00
451;DHT22;212;48.748;9.174;2022-09-03T06:24:03;17.10;1.00
451;DHT22;212;48.748;9.174;2022-09-03T06:26:30;17.10;1.00
451;DHT22;212;48.748;9.174;2022-09-03T06:28:57;17.20;1.00
451;DHT22;212;48.748;9.174;2022-09-03T06:31:24;17.20;1.00
451;DHT22;212;48.748;9.174;2022-09-03T06:33:53;17.20;1.00
451;DHT22;212;48.748;9.174;2022-09-03T06:36:22;17.10;1.00
451;DHT22;212;48.748;9.174;2022-09-03T06:38:51;17.20;1.00
451;DHT22;212;48.748;9.174;2022-09-03T06:41:21;17.30;1.00
451;DHT22;212;48.748;9.174;2022-09-03T06:43:50;17.30;1.00
451;DHT22;212;48.748;9.174;2022-09-03T06:46:19;17.30;1.00
451;DHT22;212;48.748;9.174;2022-09-03T06:48:46;17.40;1.00
451;DHT22;212;48.748;9.174;2022-09-03T06:51:15;17.40;1.00
451;DHT22;212;48.748;9.174;2022-09-03T06:53:44;17.40;1.00
451;DHT22;212;48.748;9.174;2022-09-03T06:56:12;17.40;1.00
451;DHT22;212;48.748;9.174;2022-09-03T06:58:41;17.50;1.00
451;DHT22;212;48.748;9.174;2022-09-03T07:01:10;17.60;1.00
451;DHT22;212;48.748;9.174;2022-09-03T07:03:38;17.70;1.00
451;DHT22;212;48.748;9.174;2022-09-03T07:06:06;17.70;1.00
451;DHT22;212;48.748;9.174;2022-09-03T07:08:35;17.70;1.00
451;DHT22;212;48.748;9.174;2022-09-03T07:11:04;17.80;1.00
451;DHT22;212;48.748;9.174;2022-09-03T07:13:33;17.80;1.00
451;DHT22;212;48.748;9.174;2022-09-03T07:16:01;17.90;1.00
451;DHT22;212;48.748;9.174;2022-09-03T07:18:29;18.10;1.00
451;DHT22;212;48.748;9.174;2022-09-03T07:20:57;18.20;1.00
451;DHT22;212;48.748;9.174;2022-09-03T07:23:24;18.20;1.00
451;DHT22;212;48.748;9.174;2022-09-03T07:25:54;18.30;1.00
451;DHT22;212;48.748;9.174;2022-09-03T07:28:21;18.30;1.00
451;DHT22;212;48.748;9.174;2022-09-03T07:30:49;18.30;1.00
451;DHT22;212;48.748;9.174;2022-09-03T07:33:16;18.70;1.00
451;DHT22;212;48.748;9.174;2022-09-03T07:35:43;19.00;1.00
451;DHT22;212;48.748;9.174;2022-09-03T07:38:10;19.40;1.00
451;DHT22;212;48.748;9.174;2022-09-03T07:40:37;19.60;1.00
451;DHT22;212;48.748;9.174;2022-09-03T07:43:05;19.70;1.00
451;DHT22;212;48.748;9.174;2022-09-03T07:45:32;20.10;1.00
451;DHT22;212;48.748;9.174;2022-09-03T07:47:59;20.30;1.00
451;DHT22;212;48.748;9.174;2022-09-03T07:50:25;20.50;1.00
451;DHT22;212;48.748;9.174;2022-09-03T07:52:55;20.40;1.00
451;DHT22;212;48.748;9.174;2022-09-03T07:55:23;20.40;1.00
451;DHT22;212;48.748;9.174;2022-09-03T07:57:54;20.30;1.00
451;DHT22;212;48.748;9.174;2022-09-03T08:00:22;20.30;1.00
451;DHT22;212;48.748;9.174;2022-09-03T08:02:50;20.30;1.00
451;DHT22;212;48.748;9.174;2022-09-03T08:05:17;20.40;1.00
451;DHT22;212;48.748;9.174;2022-09-03T08:07:44;20.40;1.00
451;DHT22;212;48.748;9.174;2022-09-03T08:10:11;20.60;1.00
451;DHT22;212;48.748;9.174;2022-09-03T08:12:39;20.80;1.00
451;DHT22;212;48.748;9.174;2022-09-03T08:15:06;21.00;1.00
451;DHT22;212;48.748;9.174;2022-09-03T08:17:35;21.10;1.00
451;DHT22;212;48.748;9.174;2022-09-03T08:20:02;21.50;1.00
451;DHT22;212;48.748;9.174;2022-09-03T08:22:29;22.60;1.00
451;DHT22;212;48.748;9.174;2022-09-03T08:24:56;23.30;1.00
451;DHT22;212;48.748;9.174;2022-09-03T08:27:22;23.30;1.00
451;DHT22;212;48.748;9.174;2022-09-03T08:29:49;23.50;1.00
451;DHT22;212;48.748;9.174;2022-09-03T08:32:16;23.60;1.00
451;DHT22;212;48.748;9.174;2022-09-03T08:34:44;24.10;1.00
451;DHT22;212;48.748;9.174;2022-09-03T08:37:11;24.70;1.00
451;DHT22;212;48.748;9.174;2022-09-03T08:39:38;24.90;1.00
451;DHT22;212;48.748;9.174;2022-09-03T08:42:32;25.30;1.00
451;DHT22;212;48.748;9.174;2022-09-03T08:45:06;26.10;1.00
451;DHT22;212;48.748;9.174;2022-09-03T08:47:35;26.30;1.00
451;DHT22;212;48.748;9.174;2022-09-03T08:50:10;25.90;1.00
451;DHT22;212;48.748;9.174;2022-09-03T08:52:41;27.30;1.00
451;DHT22;212;48.748;9.174;2022-09-03T08:55:19;27.80;1.00
451;DHT22;212;48.748;9.174;2022-09-03T08:57:50;26.80;1.00
451;DHT22;212;48.748;9.174;2022-09-03T09:00:18;26.30;1.00
451;DHT22;212;48.748;9.174;2022-09-03T09:02:58;26.00;1.00
451;DHT22;212;48.748;9.174;2022-09-03T09:05:41;25.80;1.00
451;DHT22;212;48.748;9.174;2022-09-03T09:08:15;25.70;1.00
451;DHT22;212;48.748;9.174;2022-09-03T09:10:46;25.70;1.00
451;DHT22;212;48.748;9.174;2022-09-03T09:13:19;25.30;1.00
451;DHT22;212;48.748;9.174;2022-09-03T09:15:54;25.10;1.00
451;DHT22;212;48.748;9.174;2022-09-03T09:18:35;24.60;1.00
451;DHT22;212;48.748;9.174;2022-09-03T09:21:11;23.70;1.00
451;DHT22;212;48.748;9.174;2022-09-03T09:23:43;23.10;1.00
451;DHT22;212;48.748;9.174;2022-09-03T09:26:14;22.90;1.00
451;DHT22;212;48.748;9.174;2022-09-03T09:28:43;22.70;1.00
451;DHT22;212;48.748;9.174;2022-09-03T09:31:13;22.80;1.00
451;DHT22;212;48.748;9.174;2022-09-03T09:33:41;23.80;1.00
451;DHT22;212;48.748;9.174;2022-09-03T09:36:12;25.10;1.00
451;DHT22;212;48.748;9.174;2022-09-03T09:38:40;27.40;1.00
451;DHT22;212;48.748;9.174;2022-09-03T09:41:11;29.10;1.00
451;DHT22;212;48.748;9.174;2022-09-03T09:43:39;31.00;1.00
451;DHT22;212;48.748;9.174;2022-09-03T09:46:09;32.20;1.00
451;DHT22;212;48.748;9.174;2022-09-03T09:48:40;32.80;1.00
451;DHT22;212;48.748;9.174;2022-09-03T09:51:16;33.60;1.00
451;DHT22;212;48.748;9.174;2022-09-03T09:53:43;33.90;1.00
451;DHT22;212;48.748;9.174;2022-09-03T09:56:19;33.70;1.00
451;DHT22;212;48.748;9.174;2022-09-03T09:58:46;31.70;1.00
451;DHT22;212;48.748;9.174;2022-09-03T10:01:19;29.70;1.00
451;DHT22;212;48.748;9.174;2022-09-03T10:03:52;28.30;1.00
451;DHT22;212;48.748;9.174;2022-09-03T10:06:22;27.40;1.00
451;DHT22;212;48.748;9.174;2022-09-03T10:09:08;26.30;1.00
451;DHT22;212;48.748;9.174;2022-09-03T10:11:37;25.80;1.00
451;DHT22;212;48.748;9.174;2022-09-03T10:14:08;25.40;1.00
451;DHT22;212;48.748;9.174;2022-09-03T10:16:39;25.10;1.00
451;DHT22;212;48.748;9.174;2022-09-03T10:19:15;24.70;1.00
451;DHT22;212;48.748;9.174;2022-09-03T10:21:48;24.20;1.00
451;DHT22;212;48.748;9.174;2022-09-03T10:24:33;24.20;1.00
451;DHT22;212;48.748;9.174;2022-09-03T10:27:05;24.10;1.00
451;DHT22;212;48.748;9.174;2022-09-03T10:29:34;24.00;1.00
451;DHT22;212;48.748;9.174;2022-09-03T10:32:14;24.10;1.00
451;DHT22;212;48.748;9.174;2022-09-03T10:34:53;24.70;1.00
451;DHT22;212;48.748;9.174;2022-09-03T10:37:33;24.80;1.00
451;DHT22;212;48.748;9.174;2022-09-03T10:40:17;25.50;1.00
451;DHT22;212;48.748;9.174;2022-09-03T10:42:49;25.40;1.00
451;DHT22;212;48.748;9.174;2022-09-03T10:45:30;26.30;1.00
451;DHT22;212;48.748;9.174;2022-09-03T10:50:52;28.90;1.00
451;DHT22;212;48.748;9.174;2022-09-03T10:53:38;29.30;1.00
451;DHT22;212;48.748;9.174;2022-09-03T10:56:11;29.10;1.00
451;DHT22;212;48.748;9.174;2022-09-03T10:58:51;29.50;1.00
451;DHT22;212;48.748;9.174;2022-09-03T11:01:28;29.30;1.00
451;DHT22;212;48.748;9.174;2022-09-03T11:04:11;28.60;1.00
451;DHT22;212;48.748;9.174;2022-09-03T11:06:49;27.80;1.00
451;DHT22;212;48.748;9.174;2022-09-03T11:09:21;27.20;1.00
451;DHT22;212;48.748;9.174;2022-09-03T11:11:52;26.20;1.00
451;DHT22;212;48.748;9.174;2022-09-03T11:14:29;25.50;1.00
451;DHT22;212;48.748;9.174;2022-09-03T11:17:00;25.00;1.00
451;DHT22;212;48.748;9.174;2022-09-03T11:19:33;24.70;1.00
451;DHT22;212;48.748;9.174;2022-09-03T11:22:02;24.30;1.00
451;DHT22;212;48.748;9.174;2022-09-03T11:24:32;24.10;1.00
451;DHT22;212;48.748;9.174;2022-09-03T11:27:06;23.80;1.00
451;DHT22;212;48.748;9.174;2022-09-03T11:29:43;23.70;1.00
451;DHT22;212;48.748;9.174;2022-09-03T11:32:16;23.70;1.00
451;DHT22;212;48.748;9.174;2022-09-03T11:34:45;23.80;1.00
451;DHT22;212;48.748;9.174;2022-09-03T11:37:18;23.50;1.00
451;DHT22;212;48.748;9.174;2022-09-03T11:39:55;23.30;1.00
451;DHT22;212;48.748;9.174;2022-09-03T11:42:35;23.30;1.00
451;DHT22;212;48.748;9.174;2022-09-03T11:45:13;23.10;1.00
451;DHT22;212;48.748;9.174;2022-09-03T11:47:45;22.90;1.00
451;DHT22;212;48.748;9.174;2022-09-03T11:50:18;22.80;1.00
451;DHT22;212;48.748;9.174;2022-09-03T11:52:46;22.80;1.00
451;DHT22;212;48.748;9.174;2022-09-03T11:55:26;22.70;1.00
451;DHT22;212;48.748;9.174;2022-09-03T11:57:54;22.60;1.00
451;DHT22;212;48.748;9.174;2022-09-03T12:00:21;22.40;1.00
451;DHT22;212;48.748;9.174;2022-09-03T12:02:51;22.30;1.00
451;DHT22;212;48.748;9.174;2022-09-03T12:05:25;22.10;1.00
451;DHT22;212;48.748;9.174;2022-09-03T12:08:11;22.00;1.00
451;DHT22;212;48.748;9.174;2022-09-03T12:10:50;21.80;1.00
451;DHT22;212;48.748;9.174;2022-09-03T12:13:41;21.60;1.00
451;DHT22;212;48.748;9.174;2022-09-03T12:19:12;21.30;1.00
451;DHT22;212;48.748;9.174;2022-09-03T12:21:47;21.20;1.00
451;DHT22;212;48.748;9.174;2022-09-03T12:24:13;20.90;1.00
451;DHT22;212;48.748;9.174;2022-09-03T12:26:42;20.70;1.00
451;DHT22;212;48.748;9.174;2022-09-03T12:29:21;20.30;1.00
451;DHT22;212;48.748;9.174;2022-09-03T12:31:49;19.80;1.00
451;DHT22;212;48.748;9.174;2022-09-03T12:34:17;19.10;1.00
451;DHT22;212;48.748;9.174;2022-09-03T12:36:46;18.90;1.00
451;DHT22;212;48.748;9.174;2022-09-03T12:39:15;18.70;1.00
451;DHT22;212;48.748;9.174;2022-09-03T12:41:59;18.40;1.00
451;DHT22;212;48.748;9.174;2022-09-03T12:44:30;18.20;1.00
451;DHT22;212;48.748;9.174;2022-09-03T12:47:05;18.10;1.00
451;DHT22;212;48.748;9.174;2022-09-03T12:49:37;18.10;1.00
451;DHT22;212;48.748;9.174;2022-09-03T12:52:10;18.10;1.00
451;DHT22;212;48.748;9.174;2022-09-03T12:54:43;18.10;1.00
451;DHT22;212;48.748;9.174;2022-09-03T12:57:18;18.00;1.00
451;DHT22;212;48.748;9.174;2022-09-03T12:59:47;17.80;1.00
451;DHT22;212;48.748;9.174;2022-09-03T13:02:18;17.80;1.00
451;DHT22;212;48.748;9.174;2022-09-03T13:04:47;17.90;1.00
451;DHT22;212;48.748;9.174;2022-09-03T13:07:23;18.10;1.00
451;DHT22;212;48.748;9.174;2022-09-03T13:09:51;18.20;1.00
451;DHT22;212;48.748;9.174;2022-09-03T13:12:28;18.30;1.00
451;DHT22;212;48.748;9.174;2022-09-03T13:14:55;18.40;1.00
451;DHT22;212;48.748;9.174;2022-09-03T13:17:46;18.40;1.00
451;DHT22;212;48.748;9.174;2022-09-03T13:20:32;18.30;1.00
451;DHT22;212;48.748;9.174;2022-09-03T13:23:17;18.30;1.00
451;DHT22;212;48.748;9.174;2022-09-03T13:25:54;18.40;1.00
451;DHT22;212;48.748;9.174;2022-09-03T13:28:35;18.50;1.00
451;DHT22;212;48.748;9.174;2022-09-03T13:31:12;18.60;1.00
451;DHT22;212;48.748;9.174;2022-09-03T13:33:49;18.70;1.00
451;DHT22;212;48.748;9.174;2022-09-03T13:36:21;18.80;1.00
451;DHT22;212;48.748;9.174;2022-09-03T13:38:53;18.80;1.00
451;DHT22;212;48.748;9.174;2022-09-03T13:41:31;18.90;1.00
451;DHT22;212;48.748;9.174;2022-09-03T13:44:05;19.10;1.00
451;DHT22;212;48.748;9.174;2022-09-03T13:46:40;19.40;1.00
451;DHT22;212;48.748;9.174;2022-09-03T13:49:21;19.60;1.00
451;DHT22;212;48.748;9.174;2022-09-03T13:52:14;19.80;1.00
451;DHT22;212;48.748;9.174;2022-09-03T13:54:51;19.70;1.00
451;DHT22;212;48.748;9.174;2022-09-03T13:57:25;19.80;1.00
451;DHT22;212;48.748;9.174;2022-09-03T13:59:59;19.90;1.00
451;DHT22;212;48.748;9.174;2022-09-03T14:02:32;20.10;1.00
451;DHT22;212;48.748;9.174;2022-09-03T14:05:06;20.10;1.00
451;DHT22;212;48.748;9.174;2022-09-03T14:07:45;20.00;1.00
451;DHT22;212;48.748;9.174;2022-09-03T14:10:29;20.00;1.00
451;DHT22;212;48.748;9.174;2022-09-03T14:13:09;19.80;1.00
451;DHT22;212;48.748;9.174;2022-09-03T14:15:45;20.00;1.00
451;DHT22;212;48.748;9.174;2022-09-03T14:18:21;20.10;1.00
451;DHT22;212;48.748;9.174;2022-09-03T14:20:55;20.20;1.00
451;DHT22;212;48.748;9.174;2022-09-03T14:23:29;20.30;1.00
451;DHT22;212;48.748;9.174;2022-09-03T14:25:59;20.50;1.00
451;DHT22;212;48.748;9.174;2022-09-03T14:28:32;20.50;1.00
451;DHT22;212;48.748;9.174;2022-09-03T14:31:09;20.30;1.00
451;DHT22;212;48.748;9.174;2022-09-03T14:33:44;20.20;1.00
451;DHT22;212;48.748;9.174;2022-09-03T14:36:23;20.20;1.00
451;DHT22;212;48.748;9.174;2022-09-03T14:39:16;20.10;1.00
451;DHT22;212;48.748;9.174;2022-09-03T14:41:55;20.00;1.00
451;DHT22;212;48.748;9.174;2022-09-03T14:44:39;20.00;1.00
451;DHT22;212;48.748;9.174;2022-09-03T14:47:20;20.00;1.00
451;DHT22;212;48.748;9.174;2022-09-03T14:50:01;20.00;1.00
451;DHT22;212;48.748;9.174;2022-09-03T14:52:47;20.00;1.00
451;DHT22;212;48.748;9.174;2022-09-03T14:55:37;20.20;1.00
451;DHT22;212;48.748;9.174;2022-09-03T14:58:24;20.30;1.00
451;DHT22;212;48.748;9.174;2022-09-03T15:00:59;20.60;1.00
451;DHT22;212;48.748;9.174;2022-09-03T15:06:45;21.10;1.00
451;DHT22;212;48.748;9.174;2022-09-03T15:09:26;21.30;1.00
451;DHT22;212;48.748;9.174;2022-09-03T15:11:56;21.30;1.00
451;DHT22;212;48.748;9.174;2022-09-03T15:14:28;21.30;1.00
451;DHT22;212;48.748;9.174;2022-09-03T15:16:59;21.20;1.00
451;DHT22;212;48.748;9.174;2022-09-03T15:19:39;21.40;1.00
451;DHT22;212;48.748;9.174;2022-09-03T15:22:17;21.50;1.00
451;DHT22;212;48.748;9.174;2022-09-03T15:24:52;21.70;1.00
451;DHT22;212;48.748;9.174;2022-09-03T15:27:36;21.70;1.00
451;DHT22;212;48.748;9.174;2022-09-03T15:30:09;21.70;1.00
451;DHT22;212;48.748;9.174;2022-09-03T15:32:50;21.70;1.00
451;DHT22;212;48.748;9.174;2022-09-03T15:38:39;21.60;1.00
451;DHT22;212;48.748;9.174;2022-09-03T15:41:16;21.60;1.00
451;DHT22;212;48.748;9.174;2022-09-03T15:43:48;21.60;1.00
451;DHT22;212;48.748;9.174;2022-09-03T15:46:36;21.70;1.00
451;DHT22;212;48.748;9.174;2022-09-03T15:49:08;21.70;1.00
451;DHT22;212;48.748;9.174;2022-09-03T15:51:50;21.50;1.00
451;DHT22;212;48.748;9.174;2022-09-03T15:54:31;21.40;1.00
451;DHT22;212;48.748;9.174;2022-09-03T15:57:04;21.40;1.00
451;DHT22;212;48.748;9.174;2022-09-03T15:59:39;21.40;1.00
451;DHT22;212;48.748;9.174;2022-09-03T16:02:09;21.30;1.00
451;DHT22;212;48.748;9.174;2022-09-03T16:04:49;21.40;1.00
451;DHT22;212;48.748;9.174;2022-09-03T16:07:23;21.40;1.00
451;DHT22;212;48.748;9.174;2022-09-03T16:10:02;21.40;1.00
451;DHT22;212;48.748;9.174;2022-09-03T16:12:35;21.60;1.00
451;DHT22;212;48.748;9.174;2022-09-03T16:15:06;21.60;1.00
451;DHT22;212;48.748;9.174;2022-09-03T16:17:37;21.60;1.00
451;DHT22;212;48.748;9.174;2022-09-03T16:20:07;21.50;1.00
451;DHT22;212;48.748;9.174;2022-09-03T16:22:45;21.40;1.00
451;DHT22;212;48.748;9.174;2022-09-03T16:25:17;21.20;1.00
451;DHT22;212;48.748;9.174;2022-09-03T16:27:52;21.20;1.00
451;DHT22;212;48.748;9.174;2022-09-03T16:30:32;21.00;1.00
451;DHT22;212;48.748;9.174;2022-09-03T16:33:05;20.90;1.00
451;DHT22;212;48.748;9.174;2022-09-03T16:35:43;20.80;1.00
451;DHT22;212;48.748;9.174;2022-09-03T16:38:33;20.80;1.00
451;DHT22;212;48.748;9.174;2022-09-03T16:41:23;20.90;1.00
451;DHT22;212;48.748;9.174;2022-09-03T16:44:00;20.90;1.00
451;DHT22;212;48.748;9.174;2022-09-03T16:46:34;20.80;1.00
451;DHT22;212;48.748;9.174;2022-09-03T16:49:35;20.80;1.00
451;DHT22;212;48.748;9.174;2022-09-03T16:52:13;20.70;1.00
451;DHT22;212;48.748;9.174;2022-09-03T16:54:54;20.60;1.00
451;DHT22;212;48.748;9.174;2022-09-03T16:57:37;20.50;1.00
451;DHT22;212;48.748;9.174;2022-09-03T17:00:11;20.60;1.00
451;DHT22;212;48.748;9.174;2022-09-03T17:03:07;20.70;1.00
451;DHT22;212;48.748;9.174;2022-09-03T17:05:54;20.80;1.00
451;DHT22;212;48.748;9.174;2022-09-03T17:08:30;20.80;1.00
451;DHT22;212;48.748;9.174;2022-09-03T17:11:09;20.90;1.00
451;DHT22;212;48.748;9.174;2022-09-03T17:14:03;20.90;1.00
451;DHT22;212;48.748;9.174;2022-09-03T17:16:44;21.00;1.00
451;DHT22;212;48.748;9.174;2022-09-03T17:19:19;20.90;1.00
451;DHT22;212;48.748;9.174;2022-09-03T17:21:57;20.80;1.00
451;DHT22;212;48.748;9.174;2022-09-03T17:24:35;20.70;1.00
451;DHT22;212;48.748;9.174;2022-09-03T17:27:17;20.70;1.00
451;DHT22;212;48.748;9.174;2022-09-03T17:30:03;20.70;1.00
451;DHT22;212;48.748;9.174;2022-09-03T17:33:10;20.50;1.00
451;DHT22;212;48.748;9.174;2022-09-03T17:35:53;20.50;1.00
451;DHT22;212;48.748;9.174;2022-09-03T17:38:36;20.40;1.00
451;DHT22;212;48.748;9.174;2022-09-03T17:41:13;20.20;1.00
451;DHT22;212;48.748;9.174;2022-09-03T17:43:47;20.10;1.00